createdAt,value
2024-04-14T00:00:10.608Z,0.49
2024-04-14T00:02:41.008Z,0.51
2024-04-14T00:05:11.360Z,0.5
2024-04-14T00:07:41.685Z,0.49
2024-04-14T00:10:12.023Z,0.49
2024-04-14T00:12:42.472Z,0.5
2024-04-14T00:15:12.732Z,0.48
2024-04-14T00:17:43.204Z,0.49
2024-04-14T00:20:13.451Z,0.5
2024-04-14T00:22:43.814Z,0.51
2024-04-14T00:25:14.173Z,0.55
2024-04-14T00:27:44.596Z,0.54
2024-04-14T00:30:14.914Z,0.53
2024-04-14T00:32:45.325Z,0.54
2024-04-14T00:35:15.622Z,0.54
2024-04-14T00:37:46.000Z,0.54
2024-04-14T00:40:16.358Z,0.55
2024-04-14T00:42:46.803Z,0.52
2024-04-14T00:45:17.152Z,0.54
2024-04-14T00:47:47.553Z,0.51
2024-04-14T00:50:17.844Z,0.53
2024-04-14T00:52:48.285Z,0.54
2024-04-14T00:55:18.595Z,0.54
2024-04-14T00:57:49.087Z,0.54
2024-04-14T01:00:19.351Z,0.58
2024-04-14T01:02:49.737Z,0.59
2024-04-14T01:05:20.156Z,0.59
2024-04-14T01:07:50.500Z,0.58
2024-04-14T01:10:20.871Z,0.59
2024-04-14T01:12:51.356Z,0.58
2024-04-14T01:15:21.721Z,0.56
2024-04-14T01:17:52.211Z,0.57
2024-04-14T01:20:22.503Z,0.58
2024-04-14T01:22:52.813Z,0.57
2024-04-14T01:25:23.176Z,0.57
2024-04-14T01:27:53.730Z,0.57
2024-04-14T01:30:23.980Z,0.6
2024-04-14T01:32:54.399Z,0.56
2024-04-14T01:35:24.754Z,0.6
2024-04-14T01:38:05.458Z,0.58
2024-04-14T01:40:25.545Z,0.58
2024-04-14T01:42:55.745Z,0.56
2024-04-14T01:45:26.077Z,0.58
2024-04-14T01:47:56.276Z,0.59
2024-04-14T01:50:26.597Z,0.58
2024-04-14T01:52:56.986Z,0.6
2024-04-14T01:55:27.372Z,0.57
2024-04-14T01:57:57.851Z,0.56
2024-04-14T02:00:27.940Z,0.56
2024-04-14T02:02:58.376Z,0.56
2024-04-14T02:05:28.598Z,0.56
2024-04-14T02:07:59.027Z,0.57
2024-04-14T02:10:29.397Z,0.57
2024-04-14T02:12:59.880Z,0.55
2024-04-14T02:15:30.226Z,0.56
2024-04-14T02:18:00.787Z,0.55
2024-04-14T02:20:30.992Z,0.55
2024-04-14T02:23:01.423Z,0.53
2024-04-14T02:25:31.794Z,0.55
2024-04-14T02:28:02.240Z,0.51
2024-04-14T02:30:32.627Z,0.49
2024-04-14T02:33:03.305Z,0.47
2024-04-14T02:35:33.439Z,0.46
2024-04-14T02:38:03.859Z,0.44
2024-04-14T02:40:34.325Z,0.4
2024-04-14T02:43:04.751Z,0.39
2024-04-14T02:45:35.139Z,0.4
2024-04-14T02:48:05.624Z,0.38
2024-04-14T02:50:35.990Z,0.4
2024-04-14T02:53:06.454Z,0.37
2024-04-14T02:55:36.973Z,0.32
2024-04-14T02:58:07.385Z,0.3
2024-04-14T03:00:37.876Z,0.29
2024-04-14T03:03:08.331Z,0.29
2024-04-14T03:05:38.843Z,0.32
2024-04-14T03:08:09.231Z,0.31
2024-04-14T03:10:39.716Z,0.32
2024-04-14T03:13:10.229Z,0.34
2024-04-14T03:15:40.711Z,0.36
2024-04-14T03:18:11.223Z,0.34
2024-04-14T03:20:41.674Z,0.32
2024-04-14T03:23:12.185Z,0.31
2024-04-14T03:25:42.657Z,0.31
2024-04-14T03:28:13.270Z,0.27
2024-04-14T03:30:43.743Z,0.27
2024-04-14T03:33:14.239Z,0.28
2024-04-14T03:35:44.758Z,0.3
2024-04-14T03:38:15.138Z,0.27
2024-04-14T03:40:45.588Z,0.25
2024-04-14T03:43:15.800Z,0.28
2024-04-14T03:45:46.265Z,0.24
2024-04-14T03:48:16.797Z,0.26
2024-04-14T03:50:47.151Z,0.27
2024-04-14T03:53:17.688Z,0.28
2024-04-14T03:55:48.170Z,0.27
2024-04-14T03:58:18.568Z,0.25
2024-04-14T04:00:49.050Z,0.23
2024-04-14T04:03:19.497Z,0.27
2024-04-14T04:05:49.938Z,0.25
2024-04-14T04:08:20.447Z,0.26
2024-04-14T04:10:50.888Z,0.26
2024-04-14T04:13:21.387Z,0.27
2024-04-14T04:15:51.829Z,0.25
2024-04-14T04:18:22.363Z,0.23
2024-04-14T04:20:52.744Z,0.25
2024-04-14T04:23:23.218Z,0.23
2024-04-14T04:25:53.682Z,0.21
2024-04-14T04:28:24.173Z,0.23
2024-04-14T04:30:54.749Z,0.21
2024-04-14T04:33:25.399Z,0.2
2024-04-14T04:35:55.599Z,0.21
2024-04-14T04:38:26.124Z,0.22
2024-04-14T04:40:56.579Z,0.23
2024-04-14T04:43:27.077Z,0.22
2024-04-14T04:45:57.546Z,0.23
2024-04-14T04:48:28.231Z,0.24
2024-04-14T04:50:58.519Z,0.27
2024-04-14T04:53:28.983Z,0.29
2024-04-14T04:55:59.446Z,0.27
2024-04-14T04:58:29.977Z,0.28
2024-04-14T05:01:00.583Z,0.26
2024-04-14T05:03:32.657Z,0.26
2024-04-14T05:06:01.474Z,0.3
2024-04-14T05:08:31.984Z,0.3
2024-04-14T05:11:02.387Z,0.28
2024-04-14T05:13:32.896Z,0.29
2024-04-14T05:16:03.392Z,0.3
2024-04-14T05:18:33.979Z,0.34
2024-04-14T05:21:04.334Z,0.34
2024-04-14T05:23:34.853Z,0.36
2024-04-14T05:26:05.293Z,0.38
2024-04-14T05:28:35.852Z,0.36
2024-04-14T05:31:06.276Z,0.33
2024-04-14T05:33:36.849Z,0.33
2024-04-14T05:36:07.211Z,0.34
2024-04-14T05:38:37.718Z,0.34
2024-04-14T05:41:08.162Z,0.37
2024-04-14T05:43:38.679Z,0.34
2024-04-14T05:46:09.297Z,0.33
2024-04-14T05:48:39.780Z,0.36
2024-04-14T05:51:10.106Z,0.38
2024-04-14T05:53:40.595Z,0.41
2024-04-14T05:56:11.044Z,0.36
2024-04-14T05:58:41.554Z,0.36
2024-04-14T06:01:12.079Z,0.37
2024-04-14T06:03:42.576Z,0.38
2024-04-14T06:06:12.993Z,0.36
2024-04-14T06:08:43.459Z,0.36
2024-04-14T06:11:13.981Z,0.36
2024-04-14T06:13:44.436Z,0.35
2024-04-14T06:16:14.946Z,0.35
2024-04-14T06:18:45.394Z,0.36
2024-04-14T06:21:15.862Z,0.35
2024-04-14T06:23:46.340Z,0.33
2024-04-14T06:26:16.799Z,0.35
2024-04-14T06:28:47.327Z,0.34
2024-04-14T06:31:17.768Z,0.34
2024-04-14T06:33:48.358Z,0.33
2024-04-14T06:36:18.463Z,0.3
2024-04-14T06:38:48.969Z,0.29
2024-04-14T06:41:19.454Z,0.28
2024-04-14T06:43:50.001Z,0.27
2024-04-14T06:46:20.464Z,0.27
2024-04-14T06:48:50.993Z,0.26
2024-04-14T06:51:21.460Z,0.27
2024-04-14T06:53:51.978Z,0.24
2024-04-14T06:56:22.458Z,0.24
2024-04-14T06:58:52.984Z,0.23
2024-04-14T07:01:23.516Z,0.24
2024-04-14T07:03:54.051Z,0.24
2024-04-14T07:06:24.520Z,0.23
2024-04-14T07:08:54.979Z,0.25
2024-04-14T07:11:25.495Z,0.25
2024-04-14T07:13:55.992Z,0.24
2024-04-14T07:16:26.436Z,0.23
2024-04-14T07:18:57.108Z,0.21
2024-04-14T07:21:27.537Z,0.18
2024-04-14T07:23:57.929Z,0.18
2024-04-14T07:26:28.415Z,0.19
2024-04-14T07:28:58.967Z,0.19
2024-04-14T07:31:29.455Z,0.2
2024-04-14T07:33:59.984Z,0.18
2024-04-14T07:36:30.642Z,0.18
2024-04-14T07:39:00.962Z,0.16
2024-04-14T07:41:31.440Z,0.14
2024-04-14T07:44:01.980Z,0.14
2024-04-14T07:46:32.449Z,0.15
2024-04-14T07:49:03.034Z,0.14
2024-04-14T07:51:33.524Z,0.15
2024-04-14T07:54:04.076Z,0.14
2024-04-14T07:56:34.450Z,0.14
2024-04-14T07:59:05.034Z,0.13
2024-04-14T08:01:35.446Z,0.11
2024-04-14T08:04:06.136Z,0.1
2024-04-14T08:06:36.433Z,0.11
2024-04-14T08:09:07.077Z,0.1
2024-04-14T08:11:37.391Z,0.1
2024-04-14T08:14:07.925Z,0.11
2024-04-14T08:16:38.415Z,0.11
2024-04-14T08:19:08.915Z,0.11
2024-04-14T08:21:39.374Z,0.12
2024-04-14T08:24:09.848Z,0.11
2024-04-14T08:26:40.073Z,0.12
2024-04-14T08:29:10.582Z,0.12
2024-04-14T08:31:40.969Z,0.11
2024-04-14T08:34:11.514Z,0.11
2024-04-14T08:36:41.941Z,0.1
2024-04-14T08:39:12.497Z,0.09
2024-04-14T08:41:43.012Z,0.09
2024-04-14T08:44:13.454Z,0.1
2024-04-14T08:46:43.955Z,0.1
2024-04-14T08:49:14.612Z,0.09
2024-04-14T08:51:44.849Z,0.09
2024-04-14T08:54:15.486Z,0.08
2024-04-14T08:56:45.786Z,0.09
2024-04-14T08:59:17.488Z,0.07
2024-04-14T09:01:46.800Z,0.07
2024-04-14T09:04:17.315Z,0.07
2024-04-14T09:06:47.696Z,0.07
2024-04-14T09:09:18.121Z,0.07
2024-04-14T09:11:48.593Z,0.07
2024-04-14T09:14:19.089Z,0.07
2024-04-14T09:16:49.692Z,0.08
2024-04-14T09:19:20.035Z,0.08
2024-04-14T09:21:50.533Z,0.08
2024-04-14T09:24:20.958Z,0.07
2024-04-14T09:26:51.414Z,0.07
2024-04-14T09:29:21.892Z,0.08
2024-04-14T09:31:53.341Z,0.07
2024-04-14T09:34:22.828Z,0.07
2024-04-14T09:36:53.253Z,0.07
2024-04-14T09:39:23.734Z,0.07
2024-04-14T09:41:54.182Z,0.07
2024-04-14T09:44:24.644Z,0.08
2024-04-14T09:46:55.155Z,0.07
2024-04-14T09:49:25.551Z,0.07
2024-04-14T09:51:56.012Z,0.08
2024-04-14T09:54:26.456Z,0.07
2024-04-14T09:56:56.886Z,0.09
2024-04-14T09:59:27.358Z,0.07
2024-04-14T10:01:57.782Z,0.07
2024-04-14T10:04:28.362Z,0.07
2024-04-14T10:06:58.698Z,0.08
2024-04-14T10:09:29.842Z,0.07
2024-04-14T10:11:59.580Z,0.08
2024-04-14T10:14:30.044Z,0.08
2024-04-14T10:17:00.663Z,0.08
2024-04-14T10:19:30.915Z,0.09
2024-04-14T10:22:01.494Z,0.09
2024-04-14T10:24:32.079Z,0.08
2024-04-14T10:27:02.644Z,0.09
2024-04-14T10:29:32.951Z,0.09
2024-04-14T10:32:03.282Z,0.08
2024-04-14T10:34:33.885Z,0.09
2024-04-14T10:37:04.224Z,0.1
2024-04-14T10:39:34.586Z,0.11
2024-04-14T10:42:04.950Z,0.09
2024-04-14T10:44:35.379Z,0.08
2024-04-14T10:47:05.781Z,0.07
2024-04-14T10:49:36.185Z,0.07
2024-04-14T10:52:06.613Z,0.08
2024-04-14T10:54:36.980Z,0.08
2024-04-14T10:57:07.384Z,0.08
2024-04-14T10:59:37.775Z,0.06
2024-04-14T11:02:08.117Z,0.07
2024-04-14T11:04:38.634Z,0.08
2024-04-14T11:07:08.931Z,0.08
2024-04-14T11:09:39.528Z,0.08
2024-04-14T11:12:09.733Z,0.08
2024-04-14T11:14:40.173Z,0.08
2024-04-14T11:17:10.536Z,0.07
2024-04-14T11:19:41.043Z,0.07
2024-04-14T11:22:11.425Z,0.06
2024-04-14T11:24:41.859Z,0.07
2024-04-14T11:27:12.200Z,0.07
2024-04-14T11:29:42.706Z,0.07
2024-04-14T11:32:13.032Z,0.07
2024-04-14T11:34:43.516Z,0.06
2024-04-14T11:37:13.851Z,0.07
2024-04-14T11:39:44.571Z,0.06
2024-04-14T11:42:14.655Z,0.07
2024-04-14T11:44:45.096Z,0.06
2024-04-14T11:47:15.510Z,0.07
2024-04-14T11:49:45.899Z,0.07
2024-04-14T11:52:16.306Z,0.07
2024-04-14T11:54:46.753Z,0.06
2024-04-14T11:57:17.077Z,0.06
2024-04-14T11:59:47.509Z,0.05
2024-04-14T12:02:17.871Z,0.06
2024-04-14T12:04:51.417Z,0.05
2024-04-14T12:07:18.650Z,0.05
2024-04-14T12:09:48.847Z,0.05
2024-04-14T12:12:19.317Z,0.04
2024-04-14T12:14:49.607Z,0.04
2024-04-14T12:17:20.083Z,0.04
2024-04-14T12:19:50.385Z,0.05
2024-04-14T12:22:20.727Z,0.06
2024-04-14T12:24:51.255Z,0.05
2024-04-14T12:27:21.480Z,0.05
2024-04-14T12:29:51.891Z,0.06
2024-04-14T12:32:22.322Z,0.06
2024-04-14T12:34:52.624Z,0.05
2024-04-14T12:37:23.026Z,0.05
2024-04-14T12:39:53.388Z,0.05
2024-04-14T12:42:23.790Z,0.06
2024-04-14T12:44:54.165Z,0.05
2024-04-14T12:47:24.597Z,0.07
2024-04-14T12:49:54.990Z,0.08
2024-04-14T12:52:25.230Z,0.07
2024-04-14T12:54:55.673Z,0.07
2024-04-14T12:57:25.981Z,0.07
2024-04-14T12:59:56.597Z,0.08
2024-04-14T13:02:26.778Z,0.07
2024-04-14T13:04:57.145Z,0.07
2024-04-14T13:07:27.481Z,0.07
2024-04-14T13:09:58.061Z,0.08
2024-04-14T13:12:28.231Z,0.07
2024-04-14T13:14:58.791Z,0.07
2024-04-14T13:17:28.994Z,0.08
2024-04-14T13:19:59.369Z,0.09
2024-04-14T13:22:29.730Z,0.09
2024-04-14T13:25:00.355Z,0.08
2024-04-14T13:27:30.432Z,0.09
2024-04-14T13:30:00.829Z,0.09
2024-04-14T13:32:31.219Z,0.08
2024-04-14T13:35:01.527Z,0.07
2024-04-14T13:37:31.843Z,0.07
2024-04-14T13:40:02.362Z,0.07
2024-04-14T13:42:32.640Z,0.07
2024-04-14T13:45:02.967Z,0.07
2024-04-14T13:47:33.432Z,0.07
2024-04-14T13:50:03.720Z,0.07
2024-04-14T13:52:34.067Z,0.07
2024-04-14T13:55:06.345Z,0.07
2024-04-14T13:57:34.866Z,0.06
2024-04-14T14:00:05.236Z,0.06
2024-04-14T14:02:35.618Z,0.07
2024-04-14T14:05:06.011Z,0.07
2024-04-14T14:07:36.415Z,0.06
2024-04-14T14:10:06.805Z,0.07
2024-04-14T14:12:37.168Z,0.07
2024-04-14T14:15:07.643Z,0.07
2024-04-14T14:17:37.923Z,0.08
2024-04-14T14:20:08.315Z,0.08
2024-04-14T14:22:38.737Z,0.07
2024-04-14T14:25:09.143Z,0.07
2024-04-14T14:27:39.470Z,0.06
2024-04-14T14:30:09.853Z,0.06
2024-04-14T14:32:40.268Z,0.06
2024-04-14T14:35:10.604Z,0.06
2024-04-14T14:37:41.052Z,0.06
2024-04-14T14:40:11.400Z,0.07
2024-04-14T14:42:41.707Z,0.07
2024-04-14T14:45:12.091Z,0.06
2024-04-14T14:47:42.541Z,0.06
2024-04-14T14:50:12.854Z,0.06
2024-04-14T14:52:43.211Z,0.06
2024-04-14T14:55:13.668Z,0.06
2024-04-14T14:57:44.002Z,0.06
2024-04-14T15:00:14.464Z,0.06
2024-04-14T15:02:44.815Z,0.06
2024-04-14T15:05:15.273Z,0.06
2024-04-14T15:07:45.541Z,0.06
2024-04-14T15:10:15.961Z,0.07
2024-04-14T15:12:46.361Z,0.07
2024-04-14T15:15:16.718Z,0.07
2024-04-14T15:17:47.083Z,0.07
2024-04-14T15:20:17.498Z,0.06
2024-04-14T15:22:47.872Z,0.07
2024-04-14T15:25:18.276Z,0.06
2024-04-14T15:27:48.669Z,0.06
2024-04-14T15:30:19.112Z,0.06
2024-04-14T15:32:49.493Z,0.06
2024-04-14T15:35:19.810Z,0.06
2024-04-14T15:37:50.154Z,0.07
2024-04-14T15:40:20.310Z,0.06
2024-04-14T15:42:50.680Z,0.06
2024-04-14T15:45:21.048Z,0.05
2024-04-14T15:47:51.522Z,0.05
2024-04-14T15:50:21.805Z,0.05
2024-04-14T15:52:52.189Z,0.06
2024-04-14T15:55:22.603Z,0.07
2024-04-14T15:57:56.064Z,0.07
2024-04-14T16:00:23.338Z,0.06
2024-04-14T16:02:53.711Z,0.06
2024-04-14T16:05:24.089Z,0.05
2024-04-14T16:07:54.443Z,0.05
2024-04-14T16:10:24.893Z,0.05
2024-04-14T16:12:55.304Z,0.06
2024-04-14T16:15:25.645Z,0.07
2024-04-14T16:17:56.143Z,0.06
2024-04-14T16:20:26.421Z,0.06
2024-04-14T16:22:56.817Z,0.05
2024-04-14T16:25:27.327Z,0.05
2024-04-14T16:27:57.666Z,0.05
2024-04-14T16:30:28.074Z,0.05
2024-04-14T16:32:58.595Z,0.05
2024-04-14T16:35:28.946Z,0.05
2024-04-14T16:37:59.355Z,0.06
2024-04-14T16:40:29.804Z,0.06
2024-04-14T16:43:00.349Z,0.06
2024-04-14T16:45:30.709Z,0.06
2024-04-14T16:48:01.304Z,0.06
2024-04-14T16:50:31.562Z,0.06
2024-04-14T16:53:02.112Z,0.06
2024-04-14T16:55:32.591Z,0.07
2024-04-14T16:58:02.921Z,0.07
2024-04-14T17:00:33.437Z,0.08
2024-04-14T17:03:03.917Z,0.08
2024-04-14T17:05:34.296Z,0.08
2024-04-14T17:08:04.646Z,0.08
2024-04-14T17:10:35.089Z,0.08
2024-04-14T17:13:05.554Z,0.08
2024-04-14T17:15:36.119Z,0.08
2024-04-14T17:18:06.482Z,0.08
2024-04-14T17:20:36.926Z,0.08
2024-04-14T17:23:07.303Z,0.08
2024-04-14T17:25:37.843Z,0.08
2024-04-14T17:28:08.416Z,0.08
2024-04-14T17:30:38.929Z,0.09
2024-04-14T17:33:09.322Z,0.09
2024-04-14T17:35:39.844Z,0.09
2024-04-14T17:38:10.382Z,0.1
2024-04-14T17:40:40.824Z,0.09
2024-04-14T17:43:11.405Z,0.09
2024-04-14T17:45:41.993Z,0.09
2024-04-14T17:48:12.304Z,0.1
2024-04-14T17:50:42.780Z,0.1
2024-04-14T17:53:13.265Z,0.1
2024-04-14T17:55:43.740Z,0.1
2024-04-14T17:58:14.259Z,0.1
2024-04-14T18:00:44.826Z,0.1
2024-04-14T18:03:15.222Z,0.1
2024-04-14T18:05:45.668Z,0.09
2024-04-14T18:08:16.143Z,0.09
2024-04-14T18:10:46.740Z,0.1
2024-04-14T18:13:17.119Z,0.1
2024-04-14T18:15:47.729Z,0.1
2024-04-14T18:18:18.120Z,0.1
2024-04-14T18:20:48.602Z,0.1
2024-04-14T18:23:19.066Z,0.09
2024-04-14T18:25:49.600Z,0.09
2024-04-14T18:28:20.078Z,0.1
2024-04-14T18:30:50.729Z,0.1
2024-04-14T18:33:21.137Z,0.1
2024-04-14T18:35:51.740Z,0.1
2024-04-14T18:38:22.199Z,0.1
2024-04-14T18:40:52.714Z,0.09
2024-04-14T18:43:23.236Z,0.09
2024-04-14T18:45:53.888Z,0.09
2024-04-14T18:48:24.288Z,0.09
2024-04-14T18:50:54.798Z,0.1
2024-04-14T18:53:25.282Z,0.11
2024-04-14T18:55:55.924Z,0.1
2024-04-14T18:58:27.804Z,0.1
2024-04-14T19:00:56.968Z,0.12
2024-04-14T19:03:27.363Z,0.13
2024-04-14T19:05:57.881Z,0.14
2024-04-14T19:08:28.365Z,0.15
2024-04-14T19:10:59.017Z,0.13
2024-04-14T19:13:29.393Z,0.11
2024-04-14T19:15:59.992Z,0.13
2024-04-14T19:18:30.696Z,0.13
2024-04-14T19:21:00.989Z,0.12
2024-04-14T19:23:31.496Z,0.13
2024-04-14T19:26:02.124Z,0.13
2024-04-14T19:28:32.645Z,0.14
2024-04-14T19:31:03.158Z,0.14
2024-04-14T19:33:33.595Z,0.16
2024-04-14T19:36:04.131Z,0.15
2024-04-14T19:38:34.634Z,0.18
2024-04-14T19:41:07.175Z,0.19
2024-04-14T19:43:35.646Z,0.19
2024-04-14T19:46:06.275Z,0.19
2024-04-14T19:48:36.758Z,0.2
2024-04-14T19:51:07.212Z,0.19
2024-04-14T19:53:37.755Z,0.19
2024-04-14T19:56:08.370Z,0.19
2024-04-14T19:58:38.798Z,0.2
2024-04-14T20:01:09.924Z,0.22
2024-04-14T20:03:39.916Z,0.22
2024-04-14T20:06:10.350Z,0.22
2024-04-14T20:08:40.873Z,0.22
2024-04-14T20:11:11.419Z,0.22
2024-04-14T20:13:41.903Z,0.22
2024-04-14T20:16:12.542Z,0.22
2024-04-14T20:18:43.132Z,0.21
2024-04-14T20:21:13.527Z,0.23
2024-04-14T20:23:44.004Z,0.3
2024-04-14T20:26:14.730Z,0.34
2024-04-14T20:28:45.059Z,0.33
2024-04-14T20:31:15.663Z,0.29
2024-04-14T20:33:46.191Z,0.26
2024-04-14T20:36:16.657Z,0.27
2024-04-14T20:38:47.162Z,0.26
2024-04-14T20:41:17.703Z,0.27
2024-04-14T20:43:48.292Z,0.27
2024-04-14T20:46:18.791Z,0.26
2024-04-14T20:48:49.419Z,0.26
2024-04-14T20:51:19.812Z,0.26
2024-04-14T20:53:50.337Z,0.25
2024-04-14T20:56:20.900Z,0.29
2024-04-14T20:58:51.412Z,0.38
2024-04-14T21:01:22.149Z,0.46
2024-04-14T21:03:52.592Z,0.42
2024-04-14T21:06:23.029Z,0.49
2024-04-14T21:08:53.552Z,0.57
2024-04-14T21:11:24.127Z,0.55
2024-04-14T21:13:54.635Z,0.61
2024-04-14T21:16:25.192Z,0.62
2024-04-14T21:18:55.773Z,0.5
2024-04-14T21:21:26.376Z,0.42
2024-04-14T21:23:56.833Z,0.38
2024-04-14T21:26:27.411Z,0.29
2024-04-14T21:28:58.067Z,0.28
2024-04-14T21:31:28.548Z,0.31
2024-04-14T21:33:59.229Z,0.39
2024-04-14T21:36:29.614Z,0.46
2024-04-14T21:39:00.172Z,0.52
2024-04-14T21:41:30.714Z,0.54
2024-04-14T21:44:01.263Z,0.56
2024-04-14T21:46:31.878Z,0.58
2024-04-14T21:49:02.512Z,0.47
2024-04-14T21:51:33.018Z,0.46
2024-04-14T21:54:03.572Z,0.48
2024-04-14T21:56:34.274Z,0.42
2024-04-14T21:59:04.675Z,0.49
2024-04-14T22:01:35.365Z,0.53
2024-04-14T22:04:15.709Z,0.54
2024-04-14T22:06:36.383Z,0.51
2024-04-14T22:09:06.942Z,0.5
2024-04-14T22:11:37.535Z,0.49
2024-04-14T22:14:08.030Z,0.49
2024-04-14T22:16:38.658Z,0.6
2024-04-14T22:19:09.300Z,0.58
2024-04-14T22:21:39.822Z,0.57
2024-04-14T22:24:10.326Z,0.59
2024-04-14T22:26:40.810Z,0.62
2024-04-14T22:29:11.363Z,0.67
2024-04-14T22:31:42.095Z,0.7
2024-04-14T22:34:12.530Z,0.72
2024-04-14T22:36:43.173Z,0.75
2024-04-14T22:39:13.598Z,0.82
2024-04-14T22:41:44.177Z,0.85
2024-04-14T22:44:14.696Z,0.66
2024-04-14T22:46:45.318Z,0.54
2024-04-14T22:49:15.855Z,0.55
2024-04-14T22:51:46.437Z,0.52
2024-04-14T22:54:16.907Z,0.58
2024-04-14T22:56:47.507Z,0.61
2024-04-14T22:59:18.028Z,0.65
2024-04-14T23:01:48.703Z,0.69
2024-04-14T23:04:19.324Z,0.7
2024-04-14T23:06:49.737Z,0.68
2024-04-14T23:09:20.259Z,0.63
2024-04-14T23:11:50.823Z,0.65
2024-04-14T23:14:21.395Z,0.67
2024-04-14T23:16:51.971Z,0.75
2024-04-14T23:19:22.592Z,0.7
2024-04-14T23:21:53.217Z,0.65
2024-04-14T23:24:23.667Z,0.65
2024-04-14T23:26:54.245Z,0.62
2024-04-14T23:29:24.825Z,0.62
2024-04-14T23:31:55.418Z,0.59
2024-04-14T23:34:25.951Z,0.55
2024-04-14T23:36:56.665Z,0.56
2024-04-14T23:39:27.109Z,0.59
2024-04-14T23:41:57.334Z,0.58
2024-04-14T23:44:27.860Z,0.53
2024-04-14T23:46:58.483Z,0.54
2024-04-14T23:49:29.000Z,0.53
2024-04-14T23:51:59.633Z,0.55
2024-04-14T23:54:30.159Z,0.6
2024-04-14T23:57:00.754Z,0.56
2024-04-14T23:59:31.302Z,0.54
